Time;durP1;ratioP1;P1;durP2;ratioP2;P2;SDS_P1;SDS_P2;PMS_P1;PMS_P2;Temp;Humidity;BMP_temperature;BMP_pressure;BME280_temperature;BME280_humidity;BME280_pressure;Samples;Min_cycle;Max_cycle;Signal;HPM_P1;HPM_P2
2023/02/24 00:01:12;;;;;;;21.90;14.20;;;;;;;7.31;77.43;98190.74;221384;1274;24233;-74
2023/02/24 00:06:14;;;;;;;16.90;12.40;;;;;;;7.30;77.34;98182.67;221641;1279;22527;-74
2023/02/24 00:11:17;;;;;;;20.70;12.40;;;;;;;7.26;77.12;98177.71;221571;1277;22576;-74
2023/02/24 00:16:23;;;;;;;20.80;13.60;;;;;;;7.22;77.24;98171.48;221732;1279;22535;-74
2023/02/24 00:21:27;;;;;;;18.30;13.20;;;;;;;7.17;77.37;98167.39;221392;1279;24385;-75
2023/02/24 00:26:29;;;;;;;20.70;12.90;;;;;;;7.11;77.46;98168.81;221225;1279;23004;-73
2023/02/24 00:31:38;;;;;;;21.80;13.60;;;;;;;7.05;77.70;98160.36;221491;1276;22554;-74
2023/02/24 00:36:41;;;;;;;19.50;12.60;;;;;;;7.00;77.82;98158.35;221586;1274;22627;-74
2023/02/24 00:41:44;;;;;;;23.40;13.70;;;;;;;6.96;77.90;98150.46;221643;1277;22540;-75
2023/02/24 00:46:46;;;;;;;19.30;12.60;;;;;;;6.91;77.83;98143.84;221360;1279;22890;-74
2023/02/24 00:51:48;;;;;;;20.90;13.60;;;;;;;6.88;78.07;98138.23;221211;1280;22489;-75
2023/02/24 00:56:50;;;;;;;19.90;13.30;;;;;;;6.86;78.13;98130.55;221129;1280;22600;-76
2023/02/24 01:01:53;;;;;;;20.10;13.30;;;;;;;6.84;78.39;98123.52;221118;1273;22488;-74
2023/02/24 01:06:58;;;;;;;22.30;13.50;;;;;;;6.82;78.18;98117.83;221278;1273;24777;-75
2023/02/24 01:12:37;;;;;;;18.20;13.00;;;;;;;6.80;78.33;98110.49;221404;1264;22537;-74
2023/02/24 01:17:39;;;;;;;18.10;12.20;;;;;;;6.79;78.35;98101.21;221416;1255;24267;-74
2023/02/24 01:22:50;;;;;;;20.90;12.80;;;;;;;6.81;78.85;98096.92;221242;1279;24382;-74
2023/02/24 01:27:52;;;;;;;19.40;13.10;;;;;;;6.86;78.60;98094.73;221552;1279;22545;-76
2023/02/24 01:32:56;;;;;;;20.00;12.60;;;;;;;6.91;78.67;98091.16;221278;1279;22557;-74
2023/02/24 01:38:00;;;;;;;18.30;12.70;;;;;;;6.96;78.87;98083.39;221466;1279;22627;-74
2023/02/24 01:43:07;;;;;;;24.40;14.20;;;;;;;7.01;78.60;98075.21;221621;1278;24340;-75
2023/02/24 01:48:11;;;;;;;20.80;13.50;;;;;;;7.05;78.24;98072.81;221362;1279;22545;-75
2023/02/24 01:53:14;;;;;;;17.70;11.90;;;;;;;7.09;78.12;98066.23;221304;1276;24356;-75
2023/02/24 01:58:23;;;;;;;18.10;12.20;;;;;;;7.12;78.10;98059.00;221289;1279;22468;-74
2023/02/24 02:03:30;;;;;;;18.80;12.70;;;;;;;7.16;78.64;98055.16;221226;1277;23278;-74
2023/02/24 02:08:35;;;;;;;17.90;12.90;;;;;;;7.22;78.04;98050.67;221327;1275;23028;-75
2023/02/24 02:13:43;;;;;;;17.90;12.80;;;;;;;7.26;78.57;98042.14;221466;1272;24256;-75
2023/02/24 02:19:29;;;;;;;19.60;12.10;;;;;;;7.30;78.34;98041.56;221422;1257;25396;-74
2023/02/24 02:24:42;;;;;;;18.80;12.90;;;;;;;7.35;78.65;98038.92;221240;1279;22553;-74
2023/02/24 02:30:12;;;;;;;18.00;12.70;;;;;;;7.37;78.31;98038.07;221383;1276;23861;-74
2023/02/24 02:35:35;;;;;;;23.30;13.30;;;;;;;7.40;78.31;98031.30;221379;1276;25367;-74
2023/02/24 02:41:22;;;;;;;19.20;13.00;;;;;;;7.40;78.83;98027.14;221489;1275;25723;-74
2023/02/24 02:46:45;;;;;;;21.20;13.40;;;;;;;7.39;78.76;98022.15;221633;1275;22607;-74
2023/02/24 02:51:55;;;;;;;19.80;13.60;;;;;;;7.37;79.00;98016.08;221371;1272;22665;-74
2023/02/24 02:57:19;;;;;;;20.90;13.70;;;;;;;7.33;79.97;98010.38;221322;1279;22629;-75
2023/02/24 03:02:28;;;;;;;20.50;14.30;;;;;;;7.25;80.26;98012.74;221576;1275;24291;-74
2023/02/24 03:07:36;;;;;;;22.00;14.60;;;;;;;7.08;80.35;98008.75;221564;1276;22533;-74
2023/02/24 03:12:41;;;;;;;21.30;14.60;;;;;;;6.93;81.07;98004.10;221265;1275;25486;-75
2023/02/24 03:17:45;;;;;;;22.30;14.50;;;;;;;6.82;81.58;98002.22;221387;1272;25290;-74
2023/02/24 03:22:58;;;;;;;19.10;13.80;;;;;;;6.76;82.06;97998.52;221389;1279;24269;-74
2023/02/24 03:28:10;;;;;;;23.70;15.00;;;;;;;6.70;82.28;97994.88;221259;1279;22726;-74
2023/02/24 03:33:18;;;;;;;23.60;15.30;;;;;;;6.65;82.59;97992.58;221496;1277;25450;-75
2023/02/24 03:38:23;;;;;;;21.40;14.80;;;;;;;6.60;83.21;97990.23;221015;1279;22667;-75
2023/02/24 03:43:30;;;;;;;21.50;15.20;;;;;;;6.56;83.62;97986.30;221182;1279;22563;-75
2023/02/24 03:48:39;;;;;;;23.00;16.00;;;;;;;6.52;83.67;97981.90;221289;1280;22570;-75
2023/02/24 03:53:59;;;;;;;23.90;15.40;;;;;;;6.49;83.38;97972.61;221299;1278;22655;-77
2023/02/24 03:59:17;;;;;;;23.40;15.90;;;;;;;6.46;83.75;97963.73;221268;1279;24827;-74
2023/02/24 04:04:39;;;;;;;26.40;16.80;;;;;;;6.42;84.23;97955.30;221459;1255;24258;-76
2023/02/24 04:10:19;;;;;;;26.80;16.70;;;;;;;6.41;84.20;97950.52;221521;1275;22607;-74
2023/02/24 04:15:34;;;;;;;25.70;17.70;;;;;;;6.40;84.24;97950.77;221322;1278;22501;-75
2023/02/24 04:20:38;;;;;;;27.10;16.50;;;;;;;6.40;84.88;97943.05;221535;1272;22539;-74
2023/02/24 04:25:48;;;;;;;25.60;16.90;;;;;;;6.39;84.65;97939.48;221404;1275;22618;-75
2023/02/24 04:30:57;;;;;;;24.80;16.50;;;;;;;6.38;84.84;97931.30;221405;1273;22548;-74
2023/02/24 04:36:00;;;;;;;30.10;18.90;;;;;;;6.34;84.73;97927.50;221361;1272;25395;-75
2023/02/24 04:41:05;;;;;;;28.60;18.80;;;;;;;6.31;85.11;97913.85;221295;1275;26543;-74
2023/02/24 04:46:12;;;;;;;27.30;18.20;;;;;;;6.28;85.12;97907.66;221409;1275;22549;-74
2023/02/24 04:51:14;;;;;;;30.50;19.50;;;;;;;6.24;85.16;97902.84;221395;1274;25268;-74
2023/02/24 04:56:17;;;;;;;29.20;19.40;;;;;;;6.22;85.32;97895.23;221274;1279;25387;-74
2023/02/24 05:01:19;;;;;;;30.80;20.40;;;;;;;6.21;85.58;97878.41;221370;1279;25376;-75
2023/02/24 05:06:22;;;;;;;29.50;19.00;;;;;;;6.20;85.63;97870.58;221281;1278;22646;-75
2023/02/24 05:11:33;;;;;;;34.50;20.70;;;;;;;6.20;85.95;97861.58;221268;1279;22643;-76
2023/02/24 05:16:37;;;;;;;31.40;18.90;;;;;;;6.19;86.00;97854.50;221364;1275;24265;-75
2023/02/24 05:21:40;;;;;;;28.00;18.20;;;;;;;6.19;86.05;97859.10;221429;1272;22559;-75
2023/02/24 05:26:42;;;;;;;26.10;16.50;;;;;;;6.21;85.71;97853.08;221418;1275;24075;-74
2023/02/24 05:31:45;;;;;;;25.40;17.10;;;;;;;6.21;85.77;97848.84;221604;1279;24218;-75
2023/02/24 05:36:48;;;;;;;26.70;17.10;;;;;;;6.23;86.02;97843.57;221570;1279;22653;-75
2023/02/24 05:41:53;;;;;;;28.30;18.20;;;;;;;6.26;85.85;97841.98;221558;1275;22552;-75
2023/02/24 05:46:59;;;;;;;26.20;17.30;;;;;;;6.26;85.80;97840.69;221475;1275;25300;-75
2023/02/24 05:52:08;;;;;;;26.10;18.40;;;;;;;6.26;86.09;97848.53;221227;1275;22559;-75
2023/02/24 05:57:15;;;;;;;30.30;18.30;;;;;;;6.27;85.73;97854.02;221199;1278;25385;-75
2023/02/24 06:02:26;;;;;;;28.60;17.00;;;;;;;6.29;86.11;97858.33;221207;1279;22685;-75
2023/02/24 06:07:33;;;;;;;28.70;18.90;;;;;;;6.30;86.11;97856.13;221639;1275;22563;-75
2023/02/24 06:12:38;;;;;;;26.40;18.20;;;;;;;6.31;86.03;97853.92;221267;1256;24365;-75
2023/02/24 06:17:40;;;;;;;29.00;18.60;;;;;;;6.30;85.96;97850.52;221593;1275;24400;-75
2023/02/24 06:22:43;;;;;;;32.90;19.60;;;;;;;6.27;86.13;97850.72;221498;1266;22544;-75
2023/02/24 06:27:51;;;;;;;29.00;19.10;;;;;;;6.27;86.29;97845.34;221435;1275;25310;-75
2023/02/24 06:32:55;;;;;;;28.10;18.70;;;;;;;6.26;86.38;97840.70;221491;1279;22667;-76
2023/02/24 06:37:58;;;;;;;31.00;20.90;;;;;;;6.23;86.49;97833.20;221409;1279;25351;-75
2023/02/24 06:43:01;;;;;;;29.20;19.30;;;;;;;6.23;86.69;97828.77;221359;1271;25523;-76
2023/02/24 06:48:06;;;;;;;30.30;20.20;;;;;;;6.21;87.05;97823.48;221488;1276;25294;-76
2023/02/24 06:53:15;;;;;;;32.40;21.10;;;;;;;6.18;86.98;97827.70;222297;1256;22553;-76
2023/02/24 06:58:19;;;;;;;33.80;21.20;;;;;;;6.19;87.31;97828.48;222622;1264;22514;-75
2023/02/24 07:03:39;;;;;;;34.20;21.50;;;;;;;6.21;87.54;97826.09;222731;1257;24203;-75
2023/02/24 07:08:42;;;;;;;33.00;22.10;;;;;;;6.24;87.45;97828.97;222216;1270;22695;-76
2023/02/24 07:13:46;;;;;;;32.50;23.40;;;;;;;6.25;87.55;97822.80;222005;1259;24139;-76
2023/02/24 07:18:53;;;;;;;31.30;21.70;;;;;;;6.26;87.64;97826.82;221698;1256;22716;-76
2023/02/24 07:23:56;;;;;;;34.20;22.70;;;;;;;6.31;87.57;97819.85;221969;1272;22526;-74
2023/02/24 07:29:05;;;;;;;35.20;23.10;;;;;;;6.37;87.83;97815.57;221883;1271;22757;-75
2023/02/24 07:34:07;;;;;;;39.30;24.50;;;;;;;6.43;87.39;97811.06;221972;1262;26558;-74
2023/02/24 07:39:10;;;;;;;34.60;24.10;;;;;;;6.51;87.63;97807.08;221910;1266;22572;-75
2023/02/24 07:44:15;;;;;;;34.60;23.70;;;;;;;6.61;87.78;97805.16;221993;1262;25366;-75
2023/02/24 07:49:28;;;;;;;32.00;21.60;;;;;;;6.71;87.63;97799.20;221546;1264;25323;-79
2023/02/24 07:54:32;;;;;;;34.90;22.60;;;;;;;6.83;87.90;97795.31;221686;1266;22540;-75
2023/02/24 07:59:36;;;;;;;34.00;22.80;;;;;;;6.93;87.88;97786.61;221671;1272;22655;-75
2023/02/24 08:04:43;;;;;;;37.90;24.00;;;;;;;7.04;87.72;97782.17;221558;1279;23426;-75
2023/02/24 08:10:12;;;;;;;34.10;23.40;;;;;;;7.07;87.58;97776.98;221505;1272;23297;-76
2023/02/24 08:15:22;;;;;;;36.70;24.10;;;;;;;7.05;87.83;97773.25;221703;1272;25288;-75
2023/02/24 08:20:34;;;;;;;;;;;;;;;7.04;88.19;97771.39;221676;1271;22516;-74
2023/02/24 08:25:43;;;;;;;37.90;23.20;;;;;;;7.02;87.92;97768.23;221675;1264;22642;-75
2023/02/24 08:30:49;;;;;;;39.00;24.90;;;;;;;7.00;87.78;97760.91;221699;1267;26420;-75
2023/02/24 08:36:00;;;;;;;38.90;25.00;;;;;;;7.00;87.99;97757.89;221761;1272;22537;-75
2023/02/24 08:41:16;;;;;;;37.20;25.60;;;;;;;7.04;87.99;97751.34;221479;1272;22550;-75
2023/02/24 08:46:24;;;;;;;36.60;24.70;;;;;;;7.07;88.03;97749.19;221597;1263;22545;-75
2023/02/24 08:51:34;;;;;;;40.20;26.50;;;;;;;7.05;87.51;97748.56;221870;1265;25360;-75
2023/02/24 08:56:42;;;;;;;37.90;26.20;;;;;;;7.04;88.08;97743.58;221914;1274;25301;-76
2023/02/24 09:01:53;;;;;;;40.90;26.70;;;;;;;7.07;87.93;97734.48;222242;1266;23846;-76
2023/02/24 09:07:14;;;;;;;41.00;27.30;;;;;;;7.11;88.08;97737.90;221760;1271;22577;-77
2023/02/24 09:12:23;;;;;;;42.60;27.80;;;;;;;7.17;87.93;97724.71;222039;1272;22537;-76
2023/02/24 09:23:02;;;;;;;43.20;28.50;;;;;;;7.35;88.14;97720.99;221776;1263;25304;-76
2023/02/24 09:28:18;;;;;;;48.40;30.90;;;;;;;7.48;88.19;97712.89;221807;1271;23858;-75
2023/02/24 09:33:26;;;;;;;45.80;30.50;;;;;;;7.67;87.96;97706.85;222041;1266;23793;-84
2023/02/24 09:44:17;;;;;;;43.60;27.90;;;;;;;8.11;87.54;97694.40;221774;1272;22683;-77
2023/02/24 09:49:25;;;;;;;40.00;28.00;;;;;;;8.22;87.45;97696.24;221607;1265;22890;-75
2023/02/24 09:54:34;;;;;;;39.70;27.30;;;;;;;8.31;86.82;97687.25;220989;1267;26483;-76
2023/02/24 10:00:23;;;;;;;39.90;26.20;;;;;;;8.45;87.04;97683.71;221280;1275;22600;-77
2023/02/24 10:05:47;;;;;;;43.30;28.60;;;;;;;8.62;87.08;97677.98;221186;1278;22585;-78
2023/02/24 10:16:24;;;;;;;38.40;27.60;;;;;;;8.94;86.70;97669.73;221199;1258;24239;-76
2023/02/24 10:21:48;;;;;;;38.80;26.80;;;;;;;8.98;85.94;97655.45;221348;1275;22602;-77
2023/02/24 10:27:05;;;;;;;36.00;26.80;;;;;;;9.07;86.02;97654.84;221353;1275;25458;-79
2023/02/24 10:33:00;;;;;;;36.50;26.80;;;;;;;9.25;86.22;97643.32;221213;1268;23229;-78
2023/02/24 10:38:05;;;;;;;36.50;27.30;;;;;;;9.48;85.92;97605.08;221374;1275;22567;-78
2023/02/24 10:43:18;;;;;;;33.50;25.30;;;;;;;9.80;85.90;97593.95;221224;1276;22594;-78
2023/02/24 10:48:26;;;;;;;34.90;23.70;;;;;;;10.09;85.82;97604.69;221232;1270;22566;-78
2023/02/24 10:54:53;;;;;;;31.20;22.80;;;;;;;10.18;84.82;97606.20;221252;1275;22536;-78
2023/02/24 11:00:31;;;;;;;36.20;25.00;;;;;;;10.14;83.97;97598.84;221286;1260;24272;-78
2023/02/24 11:11:18;;;;;;;31.10;22.30;;;;;;;10.16;83.47;97584.30;221468;1275;22866;-76
2023/02/24 11:17:13;;;;;;;32.60;22.80;;;;;;;10.10;83.49;97571.71;221102;1262;289154;-76
2023/02/24 11:21:55;;;;;;;29.70;22.20;;;;;;;10.20;83.74;97548.80;221369;1266;22651;-76
2023/02/24 11:26:58;;;;;;;32.40;22.70;;;;;;;10.22;82.89;97528.81;221632;1267;25468;-75
2023/02/24 11:32:22;;;;;;;32.20;23.10;;;;;;;10.13;82.57;97511.42;221077;1274;22553;-76
2023/02/24 11:37:38;;;;;;;29.90;21.10;;;;;;;10.17;82.86;97499.80;221151;1275;24504;-75
2023/02/24 11:43:17;;;;;;;29.40;21.00;;;;;;;10.30;82.75;97501.89;220931;1266;22535;-78
2023/02/24 11:48:55;;;;;;;29.80;21.70;;;;;;;10.24;82.11;97505.43;222385;1265;25347;-80
2023/02/24 11:54:38;;;;;;;33.20;23.10;;;;;;;10.17;82.25;97500.13;222598;1276;22557;-80
2023/02/24 12:00:04;;;;;;;31.00;22.60;;;;;;;10.02;82.19;97489.98;221274;1277;23778;-80
2023/02/24 12:05:17;;;;;;;31.40;21.00;;;;;;;9.96;82.20;97482.99;221500;1274;22803;-80
2023/02/24 12:10:47;;;;;;;30.00;21.50;;;;;;;9.88;82.07;97472.55;221496;1279;25258;-80
2023/02/24 12:16:09;;;;;;;33.40;23.20;;;;;;;9.80;82.25;97469.86;221235;1281;22571;-80
2023/02/24 12:21:40;;;;;;;33.40;23.40;;;;;;;9.69;81.96;97461.70;221350;1278;22516;-81
2023/02/24 12:27:14;;;;;;;33.30;25.10;;;;;;;9.52;82.18;97450.67;221294;1266;22576;-81
2023/02/24 12:32:40;;;;;;;33.80;24.80;;;;;;;9.50;82.68;97438.88;222272;1275;23927;-81
2023/02/24 12:38:29;;;;;;;33.00;25.10;;;;;;;9.50;82.70;97431.77;222215;1276;22992;-81
2023/02/24 12:43:44;;;;;;;34.30;25.30;;;;;;;9.47;82.56;97428.69;220908;1281;22606;-80
2023/02/24 12:49:31;;;;;;;35.30;26.00;;;;;;;9.41;82.70;97415.71;221171;1273;25458;-80
2023/02/24 12:55:17;;;;;;;33.40;24.70;;;;;;;9.38;82.99;97406.56;221408;1275;25358;-79
2023/02/24 13:00:30;;;;;;;37.00;26.90;;;;;;;9.49;83.76;97399.09;221221;1282;24232;-81
2023/02/24 13:05:58;;;;;;;30.90;24.20;;;;;;;9.59;83.20;97394.04;221166;1281;24253;-80
2023/02/24 13:11:14;;;;;;;31.20;23.40;;;;;;;9.69;83.02;97383.08;221249;1278;24974;-80
2023/02/24 13:16:32;;;;;;;34.70;24.50;;;;;;;9.76;83.28;97371.09;222442;1275;23218;-80
2023/02/24 13:21:41;;;;;;;32.80;24.10;;;;;;;9.68;83.09;97365.42;221377;1259;22578;-76
2023/02/24 13:26:56;;;;;;;32.60;24.30;;;;;;;9.69;83.18;97349.92;221560;1275;22563;-77
2023/02/24 13:31:59;;;;;;;32.30;23.40;;;;;;;9.64;82.94;97349.05;221212;1275;22954;-76
2023/02/24 13:37:03;;;;;;;32.20;23.60;;;;;;;9.56;83.00;97344.69;221274;1272;22480;-77
2023/02/24 13:42:29;;;;;;;33.30;23.40;;;;;;;9.52;83.28;97339.45;221459;1275;22537;-77
2023/02/24 13:47:50;;;;;;;34.70;23.90;;;;;;;9.50;83.72;97343.24;221464;1277;22551;-77
2023/02/24 13:53:57;;;;;;;23.60;17.30;;;;;;;9.38;83.58;97331.02;221167;1278;22513;-77
2023/02/24 13:59:53;;;;;;;;;;;;;;;;;;;;;
2023/02/24 14:05:24;;;;;;;30.20;22.10;;;;;;;8.93;83.45;97318.42;221293;1275;22618;-78
2023/02/24 14:10:30;;;;;;;34.70;25.30;;;;;;;8.90;84.44;97317.70;221289;1278;24670;-78
2023/02/24 14:15:52;;;;;;;34.80;25.40;;;;;;;8.91;84.63;97321.77;221212;1278;22574;-78
2023/02/24 14:20:57;;;;;;;40.80;27.90;;;;;;;8.91;85.15;97309.98;221098;1280;22739;-78
2023/02/24 14:26:21;;;;;;;36.60;27.00;;;;;;;8.98;85.21;97305.27;221045;1278;22966;-77
2023/02/24 14:31:27;;;;;;;37.20;26.60;;;;;;;9.12;85.29;97292.35;221171;1275;23765;-77
2023/02/24 14:36:37;;;;;;;33.10;25.70;;;;;;;9.22;84.95;97282.09;221392;1263;22571;-77
2023/02/24 14:41:40;;;;;;;35.10;26.50;;;;;;;9.32;84.88;97273.29;221539;1268;25064;-77
2023/02/24 14:46:54;;;;;;;36.20;25.90;;;;;;;9.48;84.95;97261.21;221358;1276;22545;-76
2023/02/24 14:52:17;;;;;;;34.60;25.60;;;;;;;9.53;84.48;97251.95;221421;1275;25253;-77
2023/02/24 14:57:25;;;;;;;33.30;24.20;;;;;;;9.55;84.77;97247.42;221350;1262;24244;-77
2023/02/24 15:02:32;;;;;;;34.30;25.50;;;;;;;9.51;84.57;97233.39;221595;1281;23932;-78
2023/02/24 15:07:36;;;;;;;33.30;24.50;;;;;;;9.41;84.45;97224.30;221039;1278;22753;-76
2023/02/24 15:12:48;;;;;;;30.90;22.80;;;;;;;9.30;84.34;97222.64;221043;1281;22573;-77
2023/02/24 15:17:55;;;;;;;27.00;20.40;;;;;;;9.20;84.49;97211.53;220928;1267;25456;-77
2023/02/24 15:22:57;;;;;;;21.90;15.30;;;;;;;9.11;84.17;97204.98;220946;1283;22553;-76
2023/02/24 15:28:02;;;;;;;19.90;12.10;;;;;;;9.01;83.97;97195.23;220739;1283;25266;-76
2023/02/24 15:33:13;;;;;;;16.00;11.20;;;;;;;8.94;83.86;97188.65;220936;1283;22542;-76
2023/02/24 15:38:29;;;;;;;14.80;10.70;;;;;;;8.86;83.74;97174.29;221006;1281;25368;-78
2023/02/24 15:43:51;;;;;;;15.60;10.20;;;;;;;8.77;83.57;97172.34;220811;1282;22549;-76
2023/02/24 15:48:56;;;;;;;13.50;10.80;;;;;;;8.70;83.59;97171.23;220737;1282;23285;-77
2023/02/24 15:54:05;;;;;;;16.60;10.40;;;;;;;8.67;83.63;97166.07;220819;1282;22545;-76
2023/02/24 15:59:13;;;;;;;18.20;11.90;;;;;;;8.63;83.84;97163.26;220950;1276;22675;-76
2023/02/24 16:04:22;;;;;;;17.80;12.90;;;;;;;8.58;84.00;97162.47;220918;1261;23818;-76
2023/02/24 16:09:36;;;;;;;16.90;12.00;;;;;;;8.53;84.06;97158.09;220899;1283;22896;-76
2023/02/24 16:14:40;;;;;;;16.80;13.50;;;;;;;8.51;84.11;97148.38;221204;1276;25191;-76
2023/02/24 16:19:47;;;;;;;19.50;14.50;;;;;;;8.51;84.25;97144.85;220833;1279;22545;-76
2023/02/24 16:24:55;;;;;;;26.10;16.50;;;;;;;8.52;84.28;97153.84;220790;1281;25370;-77
2023/02/24 16:30:21;;;;;;;27.60;20.40;;;;;;;8.51;84.30;97159.30;221164;1281;22606;-77
2023/02/24 16:35:27;;;;;;;20.00;15.20;;;;;;;8.45;84.46;97146.56;220913;1280;25329;-76
2023/02/24 16:40:37;;;;;;;10.00;7.90;;;;;;;8.32;84.10;97154.25;221168;1281;22539;-77
2023/02/24 16:45:44;;;;;;;6.90;5.50;;;;;;;8.20;83.77;97156.35;221082;1269;25628;-76
2023/02/24 16:50:48;;;;;;;7.00;4.60;;;;;;;7.94;84.36;97152.18;221017;1279;24332;-77
2023/02/24 16:55:51;;;;;;;6.30;4.10;;;;;;;7.65;84.22;97153.86;220938;1283;22532;-76
2023/02/24 17:01:01;;;;;;;7.00;4.20;;;;;;;7.35;83.91;97136.98;220895;1280;25400;-77
2023/02/24 17:06:04;;;;;;;6.60;4.60;;;;;;;7.20;84.18;97130.92;221020;1283;25344;-77
2023/02/24 17:11:13;;;;;;;11.00;5.50;;;;;;;7.05;84.54;97129.36;220901;1281;25430;-77
2023/02/24 17:16:15;;;;;;;11.80;6.90;;;;;;;6.90;84.73;97129.67;221153;1281;22556;-76
2023/02/24 17:21:19;;;;;;;12.00;8.50;;;;;;;6.71;84.66;97122.16;221081;1280;22533;-76
2023/02/24 17:26:22;;;;;;;12.60;8.60;;;;;;;6.55;84.73;97125.88;221243;1281;22553;-76
2023/02/24 17:31:30;;;;;;;18.00;11.40;;;;;;;6.43;84.96;97125.00;221062;1281;22648;-77
2023/02/24 17:36:34;;;;;;;17.00;11.10;;;;;;;6.36;85.15;97128.45;221081;1280;22663;-77
2023/02/24 17:41:45;;;;;;;23.50;14.10;;;;;;;6.38;85.93;97119.44;221180;1279;22664;-77
2023/02/24 17:46:48;;;;;;;19.60;12.80;;;;;;;6.40;85.56;97109.63;220979;1281;25383;-77
2023/02/24 17:51:51;;;;;;;20.40;13.00;;;;;;;6.40;85.70;97109.38;221074;1281;22625;-79
2023/02/24 17:56:53;;;;;;;17.30;11.10;;;;;;;6.40;85.55;97098.44;220845;1283;23798;-77
2023/02/24 18:01:58;;;;;;;17.30;11.50;;;;;;;6.40;86.04;97092.98;220826;1262;24291;-76
2023/02/24 18:07:03;;;;;;;17.20;10.90;;;;;;;6.37;85.83;97078.85;220877;1281;25520;-77
2023/02/24 18:12:13;;;;;;;16.60;10.20;;;;;;;6.34;86.10;97078.70;221083;1281;24291;-77
2023/02/24 18:17:16;;;;;;;15.10;10.10;;;;;;;6.36;86.64;97074.26;221106;1279;23450;-77
2023/02/24 18:22:20;;;;;;;13.70;9.60;;;;;;;6.41;86.46;97059.41;221181;1281;22575;-76
2023/02/24 18:27:27;;;;;;;15.20;11.40;;;;;;;6.41;86.37;97049.86;221021;1281;22774;-77
2023/02/24 18:32:30;;;;;;;14.30;9.80;;;;;;;6.36;86.45;97046.17;220934;1276;22573;-76
2023/02/24 18:37:33;;;;;;;14.40;11.70;;;;;;;6.33;86.54;97046.85;221195;1279;22551;-77
2023/02/24 18:42:40;;;;;;;17.10;11.70;;;;;;;6.34;86.98;97035.35;221026;1281;23249;-77
2023/02/24 18:47:42;;;;;;;26.20;18.50;;;;;;;6.35;86.84;97031.16;221044;1281;24362;-76
2023/02/24 18:52:44;;;;;;;26.70;17.60;;;;;;;6.39;87.18;97020.05;220889;1281;22556;-77
2023/02/24 18:57:47;;;;;;;28.00;19.40;;;;;;;6.42;87.20;97001.83;221267;1279;22753;-76
2023/02/24 19:02:49;;;;;;;28.10;20.50;;;;;;;6.41;87.20;96994.21;220930;1278;24106;-77
2023/02/24 19:07:52;;;;;;;34.70;22.90;;;;;;;6.38;87.10;96987.81;220916;1276;24118;-76
2023/02/24 19:12:55;;;;;;;32.90;23.30;;;;;;;6.37;86.98;96975.84;220910;1280;22647;-77
2023/02/24 19:18:01;;;;;;;32.80;23.40;;;;;;;6.40;87.23;96967.83;220842;1281;24165;-76
2023/02/24 19:23:04;;;;;;;34.50;23.30;;;;;;;6.42;87.59;96963.41;221084;1276;24224;-77
2023/02/24 19:28:07;;;;;;;32.10;23.50;;;;;;;6.46;87.69;96958.36;221018;1260;25418;-76
2023/02/24 19:33:16;;;;;;;33.70;23.70;;;;;;;6.50;87.88;96953.16;220956;1273;22582;-76
2023/02/24 19:38:20;;;;;;;34.70;23.80;;;;;;;6.53;87.58;96938.31;220858;1281;25330;-77
2023/02/24 19:43:23;;;;;;;32.10;23.30;;;;;;;6.56;87.74;96927.93;221203;1281;22542;-78
2023/02/24 19:48:26;;;;;;;32.00;22.00;;;;;;;6.58;87.61;96916.91;220957;1279;22602;-76
2023/02/24 19:53:28;;;;;;;34.40;24.40;;;;;;;6.58;87.49;96911.58;220839;1281;22552;-76
2023/02/24 19:58:34;;;;;;;37.30;24.30;;;;;;;6.56;87.36;96905.38;221276;1277;22655;-78
2023/02/24 20:03:39;;;;;;;37.60;25.40;;;;;;;6.59;87.83;96899.35;221077;1281;22543;-75
2023/02/24 20:08:41;;;;;;;39.10;25.70;;;;;;;6.60;87.63;96884.02;221185;1276;25521;-77
2023/02/24 20:13:44;;;;;;;32.80;22.50;;;;;;;6.60;87.56;96876.75;220903;1275;22552;-76
2023/02/24 20:18:47;;;;;;;35.10;21.60;;;;;;;6.61;87.96;96866.77;220918;1281;22650;-76
2023/02/24 20:23:52;;;;;;;29.90;19.30;;;;;;;6.65;87.72;96855.61;220772;1276;22569;-76
2023/02/24 20:28:59;;;;;;;26.10;16.60;;;;;;;6.70;88.02;96847.97;220875;1283;22983;-76
2023/02/24 20:34:09;;;;;;;25.50;16.30;;;;;;;6.76;88.19;96839.23;220751;1282;22560;-76
2023/02/24 20:39:14;;;;;;;24.30;15.40;;;;;;;6.82;88.12;96841.33;221021;1275;22691;-76
2023/02/24 20:44:16;;;;;;;25.30;15.90;;;;;;;6.86;88.13;96838.11;220899;1282;22606;-76
2023/02/24 20:49:19;;;;;;;28.60;17.30;;;;;;;6.90;87.77;96843.90;220832;1282;22662;-76
2023/02/24 20:54:22;;;;;;;27.00;17.20;;;;;;;6.94;88.10;96853.83;220791;1266;22667;-79
2023/02/24 20:59:25;;;;;;;24.00;15.10;;;;;;;7.00;87.88;96841.40;220988;1281;22702;-77
2023/02/24 21:04:27;;;;;;;20.10;13.30;;;;;;;6.99;87.60;96815.61;221131;1276;25314;-77
2023/02/24 21:09:35;;;;;;;23.60;13.30;;;;;;;6.95;87.79;96805.59;221233;1259;24399;-77
2023/02/24 21:14:38;;;;;;;20.00;12.90;;;;;;;6.92;87.69;96798.38;221193;1279;22537;-76
2023/02/24 21:19:42;;;;;;;17.10;12.20;;;;;;;6.90;87.58;96788.55;221350;1275;23407;-77
2023/02/24 21:24:44;;;;;;;21.80;13.20;;;;;;;6.89;87.86;96783.98;220840;1278;24272;-76
2023/02/24 21:29:54;;;;;;;19.40;12.10;;;;;;;6.88;87.85;96773.85;220764;1280;22558;-77
2023/02/24 21:34:58;;;;;;;20.20;11.80;;;;;;;6.87;87.92;96775.92;220841;1280;22596;-77
2023/02/24 21:40:09;;;;;;;18.30;10.70;;;;;;;6.87;88.17;96767.48;220778;1277;22557;-75
2023/02/24 21:45:12;;;;;;;19.30;9.90;;;;;;;6.86;87.81;96762.60;220941;1281;23778;-77
2023/02/24 21:50:16;;;;;;;17.00;10.20;;;;;;;6.81;87.91;96748.87;220944;1278;23071;-76
2023/02/24 21:55:23;;;;;;;14.70;8.00;;;;;;;6.77;87.84;96740.60;220992;1277;25326;-76
2023/02/24 22:00:29;;;;;;;12.50;7.30;;;;;;;6.73;87.80;96729.83;220825;1281;25948;-76
2023/02/24 22:05:34;;;;;;;10.30;5.70;;;;;;;6.70;87.81;96732.15;220937;1282;22539;-77
2023/02/24 22:10:39;;;;;;;9.20;5.30;;;;;;;6.71;87.61;96729.85;220778;1282;25108;-76
2023/02/24 22:15:43;;;;;;;8.90;5.10;;;;;;;6.74;87.63;96731.53;220761;1276;24228;-77
2023/02/24 22:20:46;;;;;;;15.10;5.50;;;;;;;6.79;87.87;96746.55;221090;1281;22556;-76
2023/02/24 22:25:49;;;;;;;12.20;7.40;;;;;;;6.84;87.55;96752.05;221176;1278;22543;-77
2023/02/24 22:30:56;;;;;;;18.30;11.20;;;;;;;6.83;87.45;96752.08;221240;1281;22551;-76
2023/02/24 22:36:04;;;;;;;18.20;11.00;;;;;;;6.78;87.52;96736.80;221297;1278;25243;-76
2023/02/24 22:41:13;;;;;;;13.30;8.40;;;;;;;6.72;87.73;96732.50;221121;1279;24282;-77
2023/02/24 22:46:19;;;;;;;14.60;9.40;;;;;;;6.68;87.46;96723.63;221236;1278;25304;-76
2023/02/24 22:51:31;;;;;;;14.70;8.40;;;;;;;6.66;87.53;96713.36;221179;1280;22936;-77
2023/02/24 22:56:34;;;;;;;15.60;9.10;;;;;;;6.66;87.70;96709.36;221203;1278;22568;-76
2023/02/24 23:01:38;;;;;;;16.60;8.10;;;;;;;6.65;87.66;96714.02;221133;1281;22554;-76
2023/02/24 23:06:41;;;;;;;16.80;8.80;;;;;;;6.63;87.46;96716.27;220979;1278;22607;-76
2023/02/24 23:11:45;;;;;;;18.00;10.20;;;;;;;6.63;87.65;96713.21;221225;1275;22557;-75
2023/02/24 23:17:00;;;;;;;24.30;14.30;;;;;;;6.64;87.50;96715.59;220687;1282;22601;-77
2023/02/24 23:22:09;;;;;;;36.30;25.10;;;;;;;6.59;87.79;96719.52;220869;1282;22759;-76
2023/02/24 23:27:12;;;;;;;47.00;30.70;;;;;;;6.46;87.01;96722.02;221012;1277;22696;-76
2023/02/24 23:32:15;;;;;;;49.80;32.40;;;;;;;6.27;86.84;96724.71;221341;1275;24235;-75
2023/02/24 23:37:19;;;;;;;50.70;32.90;;;;;;;6.14;86.97;96709.18;221104;1279;22572;-76
2023/02/24 23:42:23;;;;;;;47.30;30.50;;;;;;;6.01;87.05;96710.15;220879;1273;22652;-76
2023/02/24 23:47:29;;;;;;;48.20;31.50;;;;;;;5.93;87.20;96709.07;220923;1283;24326;-76
2023/02/24 23:52:32;;;;;;;42.30;28.90;;;;;;;5.87;87.06;96709.35;221012;1276;22690;-75
2023/02/24 23:57:35;;;;;;;41.70;27.20;;;;;;;5.81;86.96;96697.98;220743;1278;25395;-76
